Aviation Digital Data Service (ADDS)

Output produced by METARs form (2107 UTC 24 March 2019)
found at http://www.aviationweather.gov/metar/data/
 
WBGB 242000Z VRB02KT 9999 FEW016 BKN150 23/23 Q1009
TAF WBGB 241700Z 2418/2518 VRB03KT 9999 FEW016 
     TEMPO 2507/2511 32006KT 4000 TSRA FEW015CB
       
WMKB 242000Z VRB02KT 7000 FEW017CB SCT140 BKN270 26/25 Q1009 NOSIG
TAF WMKB 241700Z 2418/2518 07005KT 8000 FEW025 
     BECMG 2504/2506 30010KT FEW020 
     TEMPO 2508/2512 6000 -TSRA FEW017CB
       
WMKE 242000Z AUTO 00000KT //// // 24/24 Q1009
TAF WMKE 241700Z 2418/2518 VRB03KT 9999 FEW015 BKN270 
     BECMG 2505/2506 08006KT
       
TAF WMAP 241700Z 2418/2518 VRB02KT 9999 FEW018 
     BECMG 2422/2423 01005KT FEW005 
     TEMPO 2507/2511 5000 TSRA FEW017CB
       
WBKK 242030Z VRB03KT 9999 FEW014 SCT140 BKN270 26/24 Q1009 NOSIG
TAF WBKK 241700Z 2418/2518 20010KT 9999 FEW014 
     BECMG 2502/2504 30005KT
       
WMKK 242030Z VRB03KT 8000 FEW017CB SCT140 BKN280 25/24 Q1009 NOSIG
TAF WMKK 241700Z 2418/2600 VRB01KT 9999 FEW017CB 
     BECMG 2420/2421 5000 HZ FEW017CB 
     BECMG 2502/2503 9999 NSW 
     TEMPO 2508/2512 25007KT 4000 TSRA FEW008 FEW017CB SCT018 
     BECMG 2513/2514 9000 FEW030
       
WMKD 242000Z 00000KT 9999 FEW024 SCT160 BKN280 25/24 Q1009 NOSIG
WBGG 242030Z VRB02KT 9999 SCT020 SCT150 BKN300 26/25 Q1009 NOSIG
TAF WBGG 241700Z 2418/2518 VRB03KT 9999 FEW020 
     BECMG 2504/2506 02006KT SCT020
       
WBKL 242000Z VRB02KT 9999 FEW013 BKN140 BKN290 27/25 Q1010
TAF WBKL 241700Z 2418/2518 VRB02KT 9999 FEW013 
     BECMG 2504/2506 02010G20KT
       
WMKL 242000Z VRB02KT 9999 FEW024 SCT140 BKN280 25/24 Q1009
TAF WMKL 241700Z 2418/2518 VRB03KT 9999 FEW020 
     TEMPO 2418/2422 6000 -TSRA FEW017CB SCT023 
     BECMG 2507/2509 26008KT 
     BECMG 2511/2513 VRB03KT FEW025
       
WMKM 242000Z 00000KT 9999 FEW017CB SCT028 BKN270 26/24 Q1010
TAF WMKM 241700Z 2418/2518 02005KT 9999 FEW017CB 
     BECMG 2421/2423 VRB03KT FEW027 
     BECMG 2500/2502 8000 FEW017CB 
     TEMPO 2508/2512 28005KT 5000 TSRA
       
WBGR 242000Z VRB02KT 9999 FEW016 BKN150 24/23 Q1009
TAF WBGR 241700Z 2418/2518 VRB03KT 9999 SCT016 
     TEMPO 2506/2510 32006KT 4000 TSRA FEW015CB
       
WMKP 242030Z 00000KT 8000 FEW017CB SCT140 BKN270 27/24 Q1009 NOSIG
TAF WMKP 241700Z 2418/2518 VRB03KT 8000 FEW020 
     TEMPO 2418/2422 6000 -TSRA FEW017CB SCT023 
     BECMG 2504/2506 26007KT 9000 
     TEMPO 2509/2513 06003KT 5000 TSRA FEW010 FEW017CB SCT023 
     BECMG 2512/2514 VRB03KT FEW025
       
TAF WMBT 241700Z 2418/2518 VRB04KT 9999 FEW024
       
WBKS 242000Z VRB02KT 9999 FEW016 BKN300 26/24 Q1010
TAF WBKS 241700Z 2418/2518 07005KT 9999 FEW016
       
WBGS 242000Z VRB01KT 9999 SCT018 SCT150 BKN300 24/22 Q1009
TAF WBGS 241700Z 2418/2518 VRB03KT 9999 SCT018 
     TEMPO 2507/2511 4000 TSRA FEW015CB
       
WMSA 242000Z 00000KT 9000 FEW026 SCT140 BKN270 25/24 Q1009
TAF WMSA 241700Z 2418/2518 VRB02KT 9999 FEW024 
     BECMG 2421/2423 8000 FEW017CB 
     BECMG 2500/2502 31005KT 9999 SCT018 
     TEMPO 2508/2510 23010KT 4000 TSRA FEW010 FEW017CB 
     BECMG 2511/2512 VRB03KT 9000 NSW FEW018
       
WMKA 242000Z VRB01KT 9999 FEW030 SCT140 BKN280 25/24 Q1009
TAF COR WMKA 241643Z 2418/2518 VRB03KT 9999 FEW030 
     BECMG 2505/2507 26010KT FEW020 
     TEMPO 2507/2512 5000 TSRA FEW010 FEW017CB SCT023 
     BECMG 2511/2513 VRB03KT
       
WMKI 242000Z 05004KT 9999 FEW006 BKN280 25/24 Q1009
TAF WMKI 241700Z 2418/2518 VRB03KT 9999 FEW030 
     TEMPO 2508/2512 23010KT 5000 TSRA FEW017CB
       
WMKJ 242000Z 00000KT 9999 FEW010 BKN280 25/24 Q1009
TAF WMKJ 241700Z 2418/2518 VRB01KT 9999 FEW023 
     BECMG 2421/2422 4000 BR FEW010 
     BECMG 2500/2501 9999 FEW020 
     TEMPO 2508/2512 05010G20KT 3000 TSRA FEW010 FEW016CB SCT018 
     BECMG 2515/2517 9999 NSW FEW022
       
WMKC 242000Z VRB02KT 9999 FEW017CB SCT020 BKN280 27/24 Q1008
TAF WMKC 241700Z 2418/2518 VRB03KT 9999 SCT020 BKN280 
     BECMG 2503/2505 08010KT
       
WMKN 242000Z VRB03KT 9999 SCT022 BKN300 27/25 Q1009
TAF WMKN 241700Z 2418/2518 VRB03KT 9999 SCT022 BKN300 
     BECMG 2503/2504 07008KT
       
WBKW 242000Z 00000KT 9999 FEW017 BKN300 24/22 Q1010
TAF WBKW 241700Z 2418/2518 33005KT 9999 FEW014 
     BECMG 2503/2505 14010KT